createdAt,value
2023-09-08T00:02:33.391Z,17.13
2023-09-08T00:05:00.047Z,17.19
2023-09-08T00:07:26.915Z,17.16
2023-09-08T00:09:53.895Z,17.18
2023-09-08T00:12:20.579Z,17.23
2023-09-08T00:14:47.380Z,17.22
2023-09-08T00:17:14.010Z,17.16
2023-09-08T00:19:40.729Z,17.21
2023-09-08T00:22:08.239Z,17.34
2023-09-08T00:24:35.319Z,17.45
2023-09-08T00:27:02.320Z,17.41
2023-09-08T00:29:29.390Z,17.48
2023-09-08T00:31:56.222Z,17.43
2023-09-08T00:34:22.921Z,17.42
2023-09-08T00:36:49.858Z,17.43
2023-09-08T00:39:16.530Z,17.50
2023-09-08T00:41:43.149Z,17.55
2023-09-08T00:44:10.225Z,17.65
2023-09-08T00:46:37.223Z,17.37
2023-09-08T00:49:04.218Z,17.47
2023-09-08T00:51:30.803Z,17.57
2023-09-08T00:53:57.663Z,17.64
2023-09-08T00:56:24.819Z,17.63
2023-09-08T00:58:51.575Z,17.61
2023-09-08T01:01:18.782Z,17.69
2023-09-08T01:03:45.564Z,17.78
2023-09-08T01:06:12.768Z,17.79
2023-09-08T01:08:40.318Z,17.84
2023-09-08T01:11:07.945Z,17.98
2023-09-08T01:13:34.535Z,18.03
2023-09-08T01:16:02.434Z,18.00
2023-09-08T01:18:29.240Z,17.97
2023-09-08T01:21:25.492Z,18.02
2023-09-08T01:24:11.192Z,17.97
2023-09-08T01:26:41.783Z,18.01
2023-09-08T01:29:10.442Z,17.97
2023-09-08T01:31:39.041Z,17.82
2023-09-08T01:34:08.121Z,17.80
2023-09-08T01:36:35.352Z,17.84
2023-09-08T01:39:05.281Z,17.82
2023-09-08T01:41:33.604Z,17.71
2023-09-08T01:44:00.715Z,17.65
2023-09-08T01:46:27.442Z,17.68
2023-09-08T01:48:54.045Z,17.66
2023-09-08T01:51:20.755Z,17.60
2023-09-08T01:53:47.322Z,17.50
2023-09-08T01:56:13.950Z,17.43
2023-09-08T01:58:40.686Z,17.39
2023-09-08T02:01:07.446Z,17.40
2023-09-08T02:03:35.704Z,17.35
2023-09-08T02:06:02.465Z,17.43
2023-09-08T02:08:29.189Z,17.43
2023-09-08T02:10:55.793Z,17.43
2023-09-08T02:13:23.137Z,17.45
2023-09-08T02:15:49.966Z,17.47
2023-09-08T02:18:16.748Z,17.52
2023-09-08T02:20:43.532Z,17.53
2023-09-08T02:23:10.263Z,17.38
2023-09-08T02:25:36.936Z,17.46
2023-09-08T02:28:04.746Z,17.43
2023-09-08T02:30:31.760Z,17.49
2023-09-08T02:33:00.347Z,17.46
2023-09-08T02:35:27.112Z,17.50
2023-09-08T02:37:56.004Z,17.48
2023-09-08T02:40:22.663Z,17.46
2023-09-08T02:42:50.377Z,17.50
2023-09-08T02:45:17.388Z,17.44
2023-09-08T02:47:44.194Z,17.53
2023-09-08T02:50:10.981Z,17.55
2023-09-08T02:52:37.881Z,17.50
2023-09-08T02:55:05.152Z,17.54
2023-09-08T02:57:31.802Z,17.52
2023-09-08T02:59:58.588Z,17.54
2023-09-08T03:02:26.219Z,17.51
2023-09-08T03:04:53.290Z,17.44
2023-09-08T03:07:20.177Z,17.40
2023-09-08T03:09:46.963Z,17.38
2023-09-08T03:12:13.672Z,17.38
2023-09-08T03:14:40.537Z,17.40
2023-09-08T03:17:07.571Z,17.38
2023-09-08T03:19:34.604Z,17.40
2023-09-08T03:22:01.420Z,17.37
2023-09-08T03:24:28.106Z,17.36
2023-09-08T03:26:55.415Z,17.33
2023-09-08T03:29:22.665Z,17.39
2023-09-08T03:31:49.522Z,17.37
2023-09-08T03:34:17.068Z,17.37
2023-09-08T03:36:44.726Z,17.45
2023-09-08T03:39:11.674Z,17.45
2023-09-08T03:41:38.564Z,17.42
2023-09-08T03:44:05.401Z,17.33
2023-09-08T03:46:32.096Z,17.20
2023-09-08T03:49:01.972Z,17.16
2023-09-08T03:51:29.191Z,17.15
2023-09-08T03:53:55.940Z,17.14
2023-09-08T03:56:22.773Z,17.18
2023-09-08T03:58:50.016Z,17.17
2023-09-08T04:01:16.847Z,17.13
2023-09-08T04:03:45.031Z,17.28
2023-09-08T04:06:12.517Z,17.33
2023-09-08T04:08:39.235Z,17.38
2023-09-08T04:11:06.310Z,17.31
2023-09-08T04:13:33.543Z,17.26
2023-09-08T04:16:00.649Z,17.18
2023-09-08T04:18:27.584Z,17.14
2023-09-08T04:20:54.393Z,17.16
2023-09-08T04:23:21.085Z,17.01
2023-09-08T04:25:47.777Z,16.87
2023-09-08T04:28:14.434Z,17.01
2023-09-08T04:30:41.356Z,16.98
2023-09-08T04:33:08.244Z,16.98
2023-09-08T04:35:35.155Z,16.98
2023-09-08T04:38:04.555Z,16.93
2023-09-08T04:40:31.548Z,16.93
2023-09-08T04:42:58.182Z,16.88
2023-09-08T04:45:24.970Z,16.89
2023-09-08T04:47:52.030Z,16.94
2023-09-08T04:50:20.250Z,16.88
2023-09-08T04:52:47.084Z,16.87
2023-09-08T04:55:14.018Z,16.95
2023-09-08T04:57:40.816Z,16.99
2023-09-08T05:00:08.905Z,17.03
2023-09-08T05:02:35.818Z,17.09
2023-09-08T05:05:03.696Z,17.08
2023-09-08T05:07:31.424Z,17.13
2023-09-08T05:09:58.534Z,17.14
2023-09-08T05:12:29.133Z,17.10
2023-09-08T05:15:01.072Z,17.16
2023-09-08T05:17:28.169Z,17.21
2023-09-08T05:19:54.954Z,17.28
2023-09-08T05:22:22.068Z,17.29
2023-09-08T05:24:49.630Z,17.34
2023-09-08T05:27:16.482Z,17.38
2023-09-08T05:29:43.205Z,17.40
2023-09-08T05:32:10.267Z,17.43
2023-09-08T05:34:38.684Z,17.43
2023-09-08T05:37:05.988Z,17.44
2023-09-08T05:39:33.667Z,17.48
2023-09-08T05:42:00.843Z,17.46
2023-09-08T05:44:27.593Z,17.32
2023-09-08T05:46:55.349Z,17.42
2023-09-08T05:49:23.636Z,17.48
2023-09-08T05:51:50.778Z,17.51
2023-09-08T05:54:17.860Z,17.45
2023-09-08T05:56:45.148Z,17.40
2023-09-08T05:59:12.616Z,17.55
2023-09-08T06:01:40.146Z,17.59
2023-09-08T06:04:09.203Z,17.61
2023-09-08T06:06:36.187Z,17.68
2023-09-08T06:09:02.933Z,17.73
2023-09-08T06:11:29.779Z,17.66
2023-09-08T06:14:00.350Z,17.72
2023-09-08T06:16:30.419Z,17.69
2023-09-08T06:18:57.277Z,17.84
2023-09-08T06:21:24.336Z,18.28
2023-09-08T06:23:51.241Z,18.32
2023-09-08T06:26:18.807Z,18.82
2023-09-08T06:28:46.741Z,19.02
2023-09-08T06:31:13.431Z,19.22
2023-09-08T06:33:42.097Z,19.56
2023-09-08T06:36:08.808Z,19.57
2023-09-08T06:38:36.238Z,20.00
2023-09-08T06:41:09.666Z,19.60
2023-09-08T06:43:36.397Z,20.38
2023-09-08T06:46:08.782Z,20.85
2023-09-08T06:48:36.701Z,20.93
2023-09-08T06:51:03.854Z,21.54
2023-09-08T06:53:32.120Z,21.64
2023-09-08T06:55:59.100Z,21.69
2023-09-08T06:58:25.952Z,21.86
2023-09-08T07:00:55.583Z,22.13
2023-09-08T07:03:24.127Z,22.50
2023-09-08T07:05:51.921Z,22.58
2023-09-08T07:08:19.340Z,21.84
2023-09-08T07:10:46.519Z,21.77
2023-09-08T07:13:13.384Z,21.55
2023-09-08T07:15:40.729Z,22.12
2023-09-08T07:18:07.484Z,22.81
2023-09-08T07:20:34.129Z,23.43
2023-09-08T07:23:02.357Z,22.98
2023-09-08T07:25:29.192Z,23.53
2023-09-08T07:27:56.074Z,22.89
2023-09-08T07:30:23.506Z,22.58
2023-09-08T07:32:50.486Z,22.68
2023-09-08T07:35:18.129Z,23.17
2023-09-08T07:37:46.320Z,23.39
2023-09-08T07:40:13.606Z,23.24
2023-09-08T07:42:40.887Z,23.60
2023-09-08T07:45:08.221Z,23.64
2023-09-08T07:47:34.860Z,23.85
2023-09-08T07:50:21.274Z,23.98
2023-09-08T07:52:48.491Z,23.66
2023-09-08T07:55:15.671Z,23.98
2023-09-08T07:57:47.191Z,24.55
2023-09-08T08:00:14.235Z,24.59
2023-09-08T08:02:43.119Z,24.73
2023-09-08T08:05:10.349Z,25.43
2023-09-08T08:07:37.120Z,25.74
2023-09-08T08:10:04.268Z,25.61
2023-09-08T08:12:30.948Z,25.02
2023-09-08T08:14:57.672Z,26.16
2023-09-08T08:17:24.396Z,25.25
2023-09-08T08:19:51.136Z,25.16
2023-09-08T08:22:17.847Z,25.72
2023-09-08T08:24:45.041Z,25.04
2023-09-08T08:27:11.718Z,26.35
2023-09-08T08:29:38.362Z,25.86
2023-09-08T08:32:05.070Z,26.54
2023-09-08T08:34:31.867Z,26.50
2023-09-08T08:36:58.514Z,27.22
2023-09-08T08:39:25.149Z,27.80
2023-09-08T08:41:51.799Z,27.56
2023-09-08T08:44:19.436Z,28.03
2023-09-08T08:46:47.605Z,27.55
2023-09-08T08:49:16.078Z,27.72
2023-09-08T08:51:45.149Z,27.44
2023-09-08T08:54:13.791Z,27.08
2023-09-08T08:56:40.746Z,26.83
2023-09-08T08:59:07.688Z,27.00
2023-09-08T09:01:34.710Z,27.41
2023-09-08T09:04:01.619Z,27.24
2023-09-08T09:06:29.061Z,26.79
2023-09-08T09:08:55.671Z,26.96
2023-09-08T09:11:22.329Z,27.91
2023-09-08T09:13:48.922Z,28.05
2023-09-08T09:16:15.636Z,27.31
2023-09-08T09:18:56.028Z,27.16
2023-09-08T09:21:22.803Z,28.00
2023-09-08T09:23:49.450Z,28.40
2023-09-08T09:26:26.285Z,28.20
2023-09-08T09:28:54.981Z,29.02
2023-09-08T09:31:28.000Z,29.12
2023-09-08T09:34:05.770Z,28.80
2023-09-08T09:36:32.661Z,30.41
2023-09-08T09:38:59.836Z,29.54
2023-09-08T09:41:27.095Z,29.49
2023-09-08T09:43:53.860Z,28.71
2023-09-08T09:46:22.985Z,28.62
2023-09-08T09:48:55.404Z,28.83
2023-09-08T09:51:22.043Z,27.50
2023-09-08T09:53:50.515Z,27.54
2023-09-08T09:56:21.205Z,27.58
2023-09-08T09:58:48.072Z,27.14
2023-09-08T10:01:15.290Z,27.02
2023-09-08T10:03:42.064Z,27.28
2023-09-08T10:06:08.810Z,26.44
2023-09-08T10:08:38.281Z,26.55
2023-09-08T10:11:07.639Z,26.52
2023-09-08T10:13:40.511Z,26.53
2023-09-08T10:16:09.128Z,26.48
2023-09-08T10:18:36.464Z,25.90
2023-09-08T10:21:05.885Z,25.70
2023-09-08T10:23:40.215Z,25.97
2023-09-08T10:26:10.270Z,25.43
2023-09-08T10:28:37.851Z,25.84
2023-09-08T10:31:05.150Z,25.57
2023-09-08T10:33:32.543Z,25.52
2023-09-08T10:36:00.531Z,25.11
2023-09-08T10:38:33.463Z,25.38
2023-09-08T10:41:18.513Z,25.79
2023-09-08T10:43:58.611Z,25.07
2023-09-08T10:46:27.380Z,25.27
2023-09-08T10:48:55.764Z,25.80
2023-09-08T10:51:24.197Z,25.41
2023-09-08T10:53:50.948Z,26.05
2023-09-08T10:56:18.474Z,25.97
2023-09-08T10:58:49.524Z,26.58
2023-09-08T11:01:20.724Z,26.56
2023-09-08T11:03:50.903Z,27.06
2023-09-08T11:06:23.564Z,27.54
2023-09-08T11:08:54.556Z,26.86
2023-09-08T11:11:21.606Z,27.21
2023-09-08T11:13:48.543Z,27.39
2023-09-08T11:16:16.281Z,28.17
2023-09-08T11:18:43.746Z,27.21
2023-09-08T11:21:10.568Z,27.14
2023-09-08T11:23:37.579Z,27.44
2023-09-08T11:26:04.406Z,27.18
2023-09-08T11:28:31.998Z,26.77
2023-09-08T11:30:58.745Z,27.17
2023-09-08T11:33:28.636Z,27.13
2023-09-08T11:35:58.999Z,27.15
2023-09-08T11:38:29.963Z,26.67
2023-09-08T11:40:58.646Z,26.92
2023-09-08T11:43:26.204Z,26.89
2023-09-08T11:45:52.922Z,26.84
2023-09-08T11:48:20.472Z,26.61
2023-09-08T11:50:47.045Z,26.59
2023-09-08T11:53:13.675Z,27.04
2023-09-08T11:55:40.769Z,26.91
2023-09-08T11:58:07.972Z,26.73
2023-09-08T12:00:34.889Z,26.64
2023-09-08T12:03:11.510Z,26.09
2023-09-08T12:05:38.628Z,26.42
2023-09-08T12:08:08.428Z,26.37
2023-09-08T12:10:41.541Z,26.13
2023-09-08T12:13:08.762Z,26.14
2023-09-08T12:15:36.650Z,26.32
2023-09-08T12:18:04.393Z,26.16
2023-09-08T12:20:31.669Z,26.08
2023-09-08T12:23:00.332Z,26.06
2023-09-08T12:25:29.087Z,25.90
2023-09-08T12:27:55.959Z,25.96
2023-09-08T12:30:26.501Z,25.60
2023-09-08T12:32:53.202Z,25.75
2023-09-08T12:35:23.823Z,26.16
2023-09-08T12:38:08.758Z,25.70
2023-09-08T12:40:36.688Z,25.85
2023-09-08T12:43:10.267Z,25.37
2023-09-08T12:45:47.709Z,25.37
2023-09-08T12:48:14.351Z,25.23
2023-09-08T12:50:41.040Z,25.28
2023-09-08T12:53:07.673Z,25.05
2023-09-08T12:55:34.281Z,25.04
2023-09-08T12:58:00.866Z,24.86
2023-09-08T13:00:28.588Z,25.05
2023-09-08T13:02:55.259Z,24.87
2023-09-08T13:05:22.033Z,24.93
2023-09-08T13:07:48.627Z,24.97
2023-09-08T13:10:15.243Z,25.03
2023-09-08T13:12:42.529Z,24.70
2023-09-08T13:15:09.793Z,24.85
2023-09-08T13:17:36.405Z,24.92
2023-09-08T13:20:04.543Z,24.73
2023-09-08T13:22:31.399Z,24.81
2023-09-08T13:24:58.032Z,24.69
2023-09-08T13:27:24.619Z,24.69
2023-09-08T13:29:51.367Z,24.65
2023-09-08T13:32:18.131Z,24.56
2023-09-08T13:34:44.981Z,24.57
2023-09-08T13:37:11.743Z,24.52
2023-09-08T13:39:38.580Z,24.38
2023-09-08T13:42:05.365Z,24.48
2023-09-08T13:44:32.363Z,24.24
2023-09-08T13:46:59.206Z,24.52
2023-09-08T13:49:27.738Z,24.34
2023-09-08T13:51:57.233Z,24.23
2023-09-08T13:54:25.331Z,24.40
2023-09-08T13:57:07.201Z,24.30
2023-09-08T13:59:36.245Z,24.51
2023-09-08T14:04:35.593Z,24.31
2023-09-08T14:07:09.238Z,23.96
2023-09-08T14:09:51.984Z,23.86
2023-09-08T14:14:49.781Z,24.23
2023-09-08T14:17:16.410Z,24.20
2023-09-08T14:19:43.109Z,23.99
2023-09-08T14:22:09.856Z,24.20
2023-09-08T14:24:36.499Z,24.12
2023-09-08T14:27:03.825Z,24.08
2023-09-08T14:29:30.510Z,24.09
2023-09-08T14:31:57.248Z,24.10
2023-09-08T14:34:23.926Z,24.19
2023-09-08T14:36:51.810Z,24.04
2023-09-08T14:39:21.677Z,24.07
2023-09-08T14:41:49.605Z,23.98
2023-09-08T14:44:16.283Z,24.16
2023-09-08T14:46:42.876Z,24.07
2023-09-08T14:49:09.648Z,24.05
2023-09-08T14:51:36.213Z,24.05
2023-09-08T14:54:03.105Z,24.04
2023-09-08T14:56:29.744Z,24.23
2023-09-08T14:58:56.354Z,24.30
2023-09-08T15:01:23.197Z,24.14
2023-09-08T15:03:51.624Z,24.08
2023-09-08T15:06:18.400Z,24.13
2023-09-08T15:08:46.836Z,24.07
2023-09-08T15:11:13.491Z,24.05
2023-09-08T15:13:40.079Z,24.07
2023-09-08T15:16:06.807Z,24.02
2023-09-08T15:18:33.470Z,23.87
2023-09-08T15:21:00.323Z,23.82
2023-09-08T15:23:26.960Z,23.83
2023-09-08T15:25:53.657Z,23.86
2023-09-08T15:28:21.138Z,23.66
2023-09-08T15:30:51.748Z,23.62
2023-09-08T15:33:21.096Z,23.64
2023-09-08T15:35:47.939Z,23.73
2023-09-08T15:38:15.198Z,23.92
2023-09-08T15:41:00.344Z,23.72
2023-09-08T15:43:26.973Z,23.75
2023-09-08T15:45:53.643Z,23.65
2023-09-08T15:48:20.235Z,23.77
2023-09-08T15:50:46.779Z,23.60
2023-09-08T15:53:13.421Z,23.36
2023-09-08T15:55:40.010Z,23.52
2023-09-08T15:58:06.701Z,23.58
2023-09-08T16:00:34.020Z,23.42
2023-09-08T16:03:00.837Z,23.58
2023-09-08T16:05:27.435Z,23.58
2023-09-08T16:07:56.164Z,23.64
2023-09-08T16:10:22.792Z,23.69
2023-09-08T16:12:50.256Z,23.70
2023-09-08T16:15:16.965Z,23.37
2023-09-08T16:17:43.580Z,23.23
2023-09-08T16:20:10.693Z,23.28
2023-09-08T16:22:37.547Z,23.29
2023-09-08T16:25:04.495Z,23.33
2023-09-08T16:27:32.137Z,23.11
2023-09-08T16:29:58.783Z,23.17
2023-09-08T16:32:25.418Z,23.18
2023-09-08T16:34:52.101Z,23.26
2023-09-08T16:37:18.770Z,23.15
2023-09-08T16:39:46.596Z,23.04
2023-09-08T16:42:13.397Z,23.12
2023-09-08T16:44:44.542Z,22.97
2023-09-08T16:47:11.624Z,23.03
2023-09-08T16:49:38.479Z,22.99
2023-09-08T16:52:05.385Z,23.03
2023-09-08T16:54:32.065Z,22.92
2023-09-08T16:56:59.266Z,22.99
2023-09-08T16:59:25.917Z,22.94
2023-09-08T17:01:52.570Z,22.87
2023-09-08T17:04:19.448Z,22.88
2023-09-08T17:06:46.165Z,22.89
2023-09-08T17:09:16.005Z,22.91
2023-09-08T17:11:42.720Z,22.73
2023-09-08T17:14:09.492Z,22.68
2023-09-08T17:16:36.237Z,22.65
2023-09-08T17:19:02.868Z,22.63
2023-09-08T17:21:29.760Z,22.46
2023-09-08T17:23:56.406Z,22.49
2023-09-08T17:26:23.112Z,22.42
2023-09-08T17:28:49.813Z,22.38
2023-09-08T17:31:16.499Z,22.25
2023-09-08T17:33:43.203Z,22.22
2023-09-08T17:36:09.971Z,22.25
2023-09-08T17:38:37.469Z,22.20
2023-09-08T17:41:04.061Z,22.13
2023-09-08T17:43:30.853Z,22.12
2023-09-08T17:45:57.700Z,22.14
2023-09-08T17:48:24.340Z,22.15
2023-09-08T17:50:50.915Z,22.15
2023-09-08T17:53:17.574Z,22.06
2023-09-08T17:55:44.139Z,22.09
2023-09-08T17:58:10.779Z,21.99
2023-09-08T18:00:37.361Z,22.05
2023-09-08T18:03:04.064Z,21.99
2023-09-08T18:05:30.804Z,21.97
2023-09-08T18:07:57.496Z,21.78
2023-09-08T18:10:24.182Z,21.43
2023-09-08T18:12:50.856Z,21.04
2023-09-08T18:15:17.461Z,20.88
2023-09-08T18:17:46.490Z,20.85
2023-09-08T18:20:13.476Z,20.77
2023-09-08T18:22:40.021Z,20.58
2023-09-08T18:25:06.794Z,20.60
2023-09-08T18:27:33.482Z,20.67
2023-09-08T18:30:00.068Z,20.64
2023-09-08T18:32:26.649Z,20.49
2023-09-08T18:34:55.110Z,20.50
2023-09-08T18:37:21.856Z,20.34
2023-09-08T18:39:48.489Z,20.17
2023-09-08T18:42:15.133Z,20.12
2023-09-08T18:44:43.604Z,19.99
2023-09-08T18:47:10.892Z,19.93
2023-09-08T18:49:37.568Z,19.87
2023-09-08T18:52:04.343Z,19.81
2023-09-08T18:54:33.206Z,19.73
2023-09-08T18:57:00.206Z,19.75
2023-09-08T18:59:26.964Z,19.75
2023-09-08T19:01:54.333Z,19.73
2023-09-08T19:04:21.131Z,19.71
2023-09-08T19:06:47.815Z,19.71
2023-09-08T19:09:14.504Z,19.56
2023-09-08T19:11:41.143Z,19.57
2023-09-08T19:14:07.768Z,19.57
2023-09-08T19:16:34.506Z,19.37
2023-09-08T19:19:01.158Z,19.32
2023-09-08T19:21:28.101Z,19.29
2023-09-08T19:23:54.784Z,19.29
2023-09-08T19:26:21.370Z,19.27
2023-09-08T19:28:48.019Z,19.32
2023-09-08T19:31:14.698Z,19.33
2023-09-08T19:33:42.521Z,19.35
2023-09-08T19:36:09.221Z,19.28
2023-09-08T19:38:35.883Z,19.28
2023-09-08T19:41:03.653Z,19.18
2023-09-08T19:43:30.825Z,19.05
2023-09-08T19:46:04.489Z,19.01
2023-09-08T19:48:31.323Z,19.09
2023-09-08T19:50:57.975Z,19.10
2023-09-08T19:53:24.646Z,19.01
2023-09-08T19:55:53.692Z,19.02
2023-09-08T19:58:20.869Z,18.98
2023-09-08T20:00:49.142Z,18.87
2023-09-08T20:03:15.915Z,18.81
2023-09-08T20:05:46.121Z,18.65
2023-09-08T20:08:12.988Z,18.76
2023-09-08T20:10:39.903Z,18.70
2023-09-08T20:13:06.782Z,18.67
2023-09-08T20:15:36.317Z,18.63
2023-09-08T20:18:03.923Z,18.55
2023-09-08T20:20:30.861Z,18.40
2023-09-08T20:22:57.562Z,18.28
2023-09-08T20:25:24.175Z,18.30
2023-09-08T20:27:50.843Z,18.25
2023-09-08T20:30:17.598Z,18.21
2023-09-08T20:32:44.460Z,18.09
2023-09-08T20:35:11.101Z,18.01
2023-09-08T20:37:37.857Z,17.98
2023-09-08T20:40:04.690Z,18.01
2023-09-08T20:42:31.362Z,17.92
2023-09-08T20:44:58.277Z,17.83
2023-09-08T20:47:26.784Z,17.84
2023-09-08T20:49:55.872Z,17.65
2023-09-08T20:52:22.492Z,17.61
2023-09-08T20:54:49.054Z,17.67
2023-09-08T20:57:15.694Z,17.58
2023-09-08T20:59:42.313Z,17.58
2023-09-08T21:02:09.124Z,17.60
2023-09-08T21:04:35.953Z,17.60
2023-09-08T21:07:02.694Z,17.66
2023-09-08T21:09:29.600Z,17.54
2023-09-08T21:11:56.291Z,17.50
2023-09-08T21:14:22.965Z,17.46
2023-09-08T21:16:49.600Z,17.37
2023-09-08T21:19:18.475Z,17.39
2023-09-08T21:21:45.138Z,17.41
2023-09-08T21:24:11.838Z,17.26
2023-09-08T21:26:38.507Z,17.32
2023-09-08T21:29:05.110Z,17.27
2023-09-08T21:31:32.263Z,17.26
2023-09-08T21:33:58.973Z,17.22
2023-09-08T21:36:25.689Z,17.18
2023-09-08T21:38:56.729Z,17.23
2023-09-08T21:41:23.903Z,17.06
2023-09-08T21:43:50.509Z,17.12
2023-09-08T21:46:17.175Z,17.16
2023-09-08T21:48:44.024Z,17.14
2023-09-08T21:51:10.818Z,17.07
2023-09-08T21:53:40.734Z,16.87
2023-09-08T21:56:07.472Z,16.96
2023-09-08T21:58:34.188Z,16.93
2023-09-08T22:01:01.797Z,17.00
2023-09-08T22:03:29.849Z,16.80
2023-09-08T22:05:56.952Z,16.84
2023-09-08T22:08:26.434Z,16.99
2023-09-08T22:10:53.092Z,16.90
2023-09-08T22:13:19.763Z,16.82
2023-09-08T22:15:46.393Z,16.85
2023-09-08T22:18:13.563Z,16.99
2023-09-08T22:20:42.389Z,16.83
2023-09-08T22:23:10.562Z,16.92
2023-09-08T22:25:39.413Z,16.92
2023-09-08T22:28:06.156Z,17.06
2023-09-08T22:30:32.778Z,17.03
2023-09-08T22:32:59.491Z,17.03
2023-09-08T22:35:28.541Z,17.05
2023-09-08T22:37:55.159Z,17.04
2023-09-08T22:40:22.235Z,17.17
2023-09-08T22:42:50.747Z,17.23
2023-09-08T22:45:17.578Z,17.33
2023-09-08T22:47:44.318Z,17.24
2023-09-08T22:50:12.930Z,17.37
2023-09-08T22:52:42.817Z,17.37
2023-09-08T22:55:24.450Z,17.24
2023-09-08T22:57:52.371Z,17.24
2023-09-08T23:00:19.103Z,17.28
2023-09-08T23:02:47.862Z,17.13
2023-09-08T23:05:15.031Z,17.31
2023-09-08T23:07:44.859Z,17.23
2023-09-08T23:10:11.703Z,17.26
2023-09-08T23:12:38.305Z,17.16
2023-09-08T23:15:05.406Z,17.00
2023-09-08T23:17:32.272Z,16.82
2023-09-08T23:19:59.041Z,16.86
2023-09-08T23:22:26.214Z,16.81
2023-09-08T23:24:52.822Z,16.74
2023-09-08T23:27:19.713Z,16.86
2023-09-08T23:29:46.395Z,16.88
2023-09-08T23:32:13.046Z,16.94
2023-09-08T23:34:39.767Z,16.75
2023-09-08T23:37:06.848Z,16.73
2023-09-08T23:39:33.583Z,16.84
2023-09-08T23:42:02.610Z,16.82
2023-09-08T23:44:29.213Z,16.85
2023-09-08T23:46:56.058Z,16.83
2023-09-08T23:49:22.668Z,16.73
2023-09-08T23:51:49.584Z,16.81
2023-09-08T23:54:16.321Z,16.88
2023-09-08T23:56:42.950Z,16.92
2023-09-08T23:59:10.986Z,17.00
